Time;durP1;ratioP1;P1;durP2;ratioP2;P2;SDS_P1;SDS_P2;PMS_P1;PMS_P2;Temp;Humidity;BMP_temperature;BMP_pressure;BME280_temperature;BME280_humidity;BME280_pressure;Samples;Min_cycle;Max_cycle;Signal;HPM_P1;HPM_P2
2022/04/17 00:00:41;;;;;;;8.63;5.10;;;;;;;-0.82;75.58;101190.08;1593777;88;21115;-61
2022/04/17 00:03:08;;;;;;;10.35;5.40;;;;;;;-0.87;75.45;101191.67;1573530;89;21082;-61
2022/04/17 00:05:36;;;;;;;9.53;5.62;;;;;;;-0.98;75.35;101186.29;1634489;86;20975;-61
2022/04/17 00:08:03;;;;;;;10.30;5.75;;;;;;;-1.06;75.35;101190.41;1625943;86;21539;-62
2022/04/17 00:10:31;;;;;;;10.65;5.08;;;;;;;-1.13;75.47;101190.23;1636418;86;21026;-61
2022/04/17 00:12:58;;;;;;;9.98;7.28;;;;;;;-1.18;75.49;101189.25;1621392;88;21319;-61
2022/04/17 00:15:25;;;;;;;8.83;5.92;;;;;;;-1.23;75.60;101191.25;1618570;88;20972;-61
2022/04/17 00:17:51;;;;;;;13.20;6.45;;;;;;;-1.29;75.65;101191.97;1598720;88;21043;-61
2022/04/17 00:20:18;;;;;;;9.70;6.10;;;;;;;-1.32;75.73;101191.89;1603283;88;21187;-61
2022/04/17 00:22:45;;;;;;;8.95;5.92;;;;;;;-1.34;75.85;101192.30;1611665;88;21005;-61
2022/04/17 00:25:12;;;;;;;8.45;5.90;;;;;;;-1.33;75.93;101198.28;1604300;88;21292;-61
2022/04/17 00:27:39;;;;;;;16.15;8.05;;;;;;;-1.35;76.03;101198.23;1606734;88;20982;-61
2022/04/17 00:30:09;;;;;;;19.45;8.05;;;;;;;-1.31;76.23;101188.95;1642352;86;21192;-61
2022/04/17 00:32:36;;;;;;;15.08;7.62;;;;;;;-1.28;76.29;101187.31;1631141;86;21039;-61
2022/04/17 00:35:06;;;;;;;9.95;6.12;;;;;;;-1.20;76.39;101185.80;1633803;86;27115;-61
2022/04/17 00:37:33;;;;;;;9.48;6.30;;;;;;;-1.13;76.46;101187.67;1633879;86;21218;-61
2022/04/17 00:40:04;;;;;;;10.93;6.00;;;;;;;-1.03;76.64;101182.78;1634756;86;20969;-61
2022/04/17 00:42:31;;;;;;;10.98;6.35;;;;;;;-0.99;76.44;101180.72;1611048;88;21018;-61
2022/04/17 00:44:57;;;;;;;8.00;5.70;;;;;;;-0.99;76.42;101176.88;1596522;88;21006;-61
2022/04/17 00:47:24;;;;;;;10.70;5.95;;;;;;;-1.00;76.36;101173.88;1610927;88;20985;-61
2022/04/17 00:49:52;;;;;;;12.28;6.80;;;;;;;-1.02;76.42;101181.94;1629598;87;21625;-61
2022/04/17 00:52:22;;;;;;;14.43;8.18;;;;;;;-1.02;76.45;101175.53;1617593;88;21100;-61
2022/04/17 00:54:54;;;;;;;14.83;6.80;;;;;;;-0.98;76.55;101174.75;1600133;88;20991;-61
2022/04/17 00:57:22;;;;;;;14.43;7.08;;;;;;;-0.99;76.61;101170.47;1594535;88;21058;-61
2022/04/17 00:59:49;;;;;;;10.48;6.28;;;;;;;-1.04;76.45;101177.18;1594157;88;21612;-62
2022/04/17 01:02:16;;;;;;;10.78;6.65;;;;;;;-1.06;76.60;101178.87;1596933;88;21497;-62
2022/04/17 01:04:44;;;;;;;11.12;6.50;;;;;;;-1.04;76.65;101178.46;1595819;88;25174;-62
2022/04/17 01:07:11;;;;;;;12.53;7.62;;;;;;;-1.02;76.63;101181.94;1594817;88;21381;-62
2022/04/17 01:09:39;;;;;;;14.25;7.65;;;;;;;-1.07;76.59;101186.09;1597025;88;21122;-62
2022/04/17 01:12:10;;;;;;;12.78;8.13;;;;;;;-1.09;76.70;101177.48;1595704;88;20963;-62
2022/04/17 01:14:42;;;;;;;12.82;7.85;;;;;;;-1.08;76.76;101177.53;1599423;88;21084;-62
2022/04/17 01:17:09;;;;;;;13.72;8.78;;;;;;;-1.11;76.71;101167.22;1591904;88;21072;-62
2022/04/17 01:19:37;;;;;;;17.48;9.10;;;;;;;-1.15;76.74;101171.41;1630018;86;21000;-62
2022/04/17 01:22:07;;;;;;;15.40;8.88;;;;;;;-1.10;76.96;101165.51;1640331;86;20963;-62
2022/04/17 01:27:20;;;;;;;16.93;10.05;;;;;;;-1.06;77.03;101162.20;1645288;86;21472;-62
2022/04/17 01:29:48;;;;;;;19.07;10.30;;;;;;;-1.09;77.33;101161.72;1648272;85;21643;-62
2022/04/17 01:32:15;;;;;;;15.90;9.38;;;;;;;-1.04;77.36;101163.08;1637870;86;21024;-62
2022/04/17 01:34:42;;;;;;;16.75;10.68;;;;;;;-1.09;77.39;101158.26;1631251;86;21662;-62
2022/04/17 01:37:09;;;;;;;14.58;9.43;;;;;;;-1.11;77.34;101153.53;1644327;85;21097;-62
2022/04/17 01:39:35;;;;;;;20.92;10.45;;;;;;;-1.09;77.56;101149.28;1650396;85;21146;-62
2022/04/17 01:42:03;;;;;;;18.37;8.60;;;;;;;-1.08;77.51;101149.76;1644092;85;21031;-62
2022/04/17 01:44:30;;;;;;;14.85;8.35;;;;;;;-1.11;77.39;101156.09;1653497;85;20978;-62
2022/04/17 01:46:58;;;;;;;11.80;8.35;;;;;;;-1.10;77.56;101165.51;1645446;85;21112;-63
2022/04/17 01:49:25;;;;;;;15.13;8.95;;;;;;;-1.09;77.67;101162.10;1594388;88;21060;-62
2022/04/17 01:51:53;;;;;;;14.00;9.35;;;;;;;-1.08;77.60;101158.73;1586856;88;21169;-62
2022/04/17 01:54:23;;;;;;;13.43;8.85;;;;;;;-1.14;77.45;101173.13;1632879;86;20938;-62
2022/04/17 01:56:50;;;;;;;17.27;8.95;;;;;;;-1.26;77.35;101174.52;1605698;88;21025;-62
2022/04/17 01:59:18;;;;;;;13.83;8.78;;;;;;;-1.37;77.34;101164.04;1586430;88;20995;-62
2022/04/17 02:01:45;;;;;;;18.80;10.05;;;;;;;-1.46;77.48;101154.41;1609498;88;21083;-62
2022/04/17 02:04:13;;;;;;;15.45;8.98;;;;;;;-1.52;77.60;101144.02;1607004;87;21554;-62
2022/04/17 02:06:40;;;;;;;15.65;9.38;;;;;;;-1.51;77.71;101142.31;1623049;86;21029;-62
2022/04/17 02:09:09;;;;;;;16.10;8.98;;;;;;;-1.48;77.91;101142.41;1602107;87;21177;-62
2022/04/17 02:11:38;;;;;;;18.02;10.20;;;;;;;-1.40;78.09;101143.44;1647908;85;21149;-62
2022/04/17 02:14:07;;;;;;;13.03;8.60;;;;;;;-1.35;78.01;101139.30;1644839;85;21046;-62
2022/04/17 02:16:33;;;;;;;15.43;9.18;;;;;;;-1.37;77.83;101139.70;1643927;85;21233;-62
2022/04/17 02:19:00;;;;;;;17.52;10.90;;;;;;;-1.46;77.72;101131.77;1643404;85;21149;-62
2022/04/17 02:21:28;;;;;;;19.62;11.38;;;;;;;-1.56;77.90;101125.98;1648149;86;21528;-62
2022/04/17 02:23:55;;;;;;;17.65;12.40;;;;;;;-1.60;77.98;101127.20;1650352;86;21747;-62
2022/04/17 02:26:22;;;;;;;20.70;11.38;;;;;;;-1.60;78.07;101131.04;1642421;86;20969;-62
2022/04/17 02:28:49;;;;;;;27.73;13.32;;;;;;;-1.63;78.08;101124.95;1643675;86;21127;-62
2022/04/17 02:31:17;;;;;;;17.65;11.88;;;;;;;-1.64;78.20;101122.81;1646796;86;21124;-62
2022/04/17 02:33:44;;;;;;;20.40;12.20;;;;;;;-1.62;78.10;101114.76;1642002;85;21358;-62
2022/04/17 02:36:11;;;;;;;14.70;9.30;;;;;;;-1.64;78.27;101107.44;1635996;86;21565;-62
2022/04/17 02:38:38;;;;;;;16.95;10.48;;;;;;;-1.61;78.39;101108.80;1641424;86;21038;-62
2022/04/17 02:41:05;;;;;;;13.28;9.53;;;;;;;-1.54;78.37;101111.50;1638058;86;21982;-62
2022/04/17 02:43:32;;;;;;;19.07;11.65;;;;;;;-1.51;78.38;101109.91;1637986;86;21054;-62
2022/04/17 02:45:58;;;;;;;18.23;11.83;;;;;;;-1.52;78.47;101107.29;1633621;86;21034;-62
2022/04/17 02:48:25;;;;;;;25.17;13.17;;;;;;;-1.56;78.40;101108.06;1634127;86;21266;-62
2022/04/17 02:50:52;;;;;;;15.40;10.70;;;;;;;-1.60;78.43;101092.62;1636437;86;21582;-62
2022/04/17 02:53:20;;;;;;;17.77;10.97;;;;;;;-1.65;78.48;101091.64;1621257;86;21435;-62
2022/04/17 02:55:47;;;;;;;18.40;10.82;;;;;;;-1.65;78.62;101098.04;1644890;86;21106;-62
2022/04/17 02:58:14;;;;;;;16.82;9.65;;;;;;;-1.64;78.63;101083.11;1642423;86;21075;-62
2022/04/17 03:06:12;;;;;;;14.40;9.70;;;;;;;-1.51;78.79;101080.83;1636059;86;21393;-62
2022/04/17 03:08:41;;;;;;;14.95;10.15;;;;;;;-1.42;78.98;101083.21;1638235;86;21538;-62
2022/04/17 03:11:08;;;;;;;16.12;10.50;;;;;;;-1.39;78.85;101078.58;1642037;85;21124;-62
2022/04/17 03:13:35;;;;;;;19.70;11.68;;;;;;;-1.43;78.75;101077.65;1631720;86;21034;-62
2022/04/17 03:16:02;;;;;;;18.45;11.70;;;;;;;-1.43;78.78;101076.75;1636809;86;26870;-62
2022/04/17 03:18:29;;;;;;;20.37;12.65;;;;;;;-1.34;79.11;101074.42;1641578;86;21101;-62
2022/04/17 03:20:58;;;;;;;26.33;13.50;;;;;;;-1.30;79.10;101077.50;1642427;86;20972;-62
2022/04/17 03:23:24;;;;;;;18.00;12.50;;;;;;;-1.24;79.10;101073.78;1646279;85;21021;-62
2022/04/17 03:25:51;;;;;;;20.70;12.50;;;;;;;-1.25;78.93;101077.61;1641421;86;21505;-62
2022/04/17 03:28:17;;;;;;;18.15;12.35;;;;;;;-1.32;78.91;101066.34;1649692;86;21056;-62
2022/04/17 03:30:44;;;;;;;22.40;10.80;;;;;;;-1.36;78.96;101072.23;1640844;86;21110;-62
2022/04/17 03:33:12;;;;;;;17.62;10.98;;;;;;;-1.39;79.03;101071.75;1636221;86;21490;-62
2022/04/17 03:35:39;;;;;;;18.00;11.05;;;;;;;-1.45;78.85;101066.91;1638563;86;21661;-62
2022/04/17 03:38:05;;;;;;;16.42;10.23;;;;;;;-1.51;78.90;101074.42;1634674;86;20995;-62
2022/04/17 03:40:32;;;;;;;18.10;11.73;;;;;;;-1.49;79.08;101072.77;1647995;86;21596;-63
2022/04/17 03:42:59;;;;;;;16.83;10.77;;;;;;;-1.46;79.25;101071.56;1651445;86;21603;-62
2022/04/17 03:45:25;;;;;;;18.85;11.48;;;;;;;-1.46;79.25;101071.56;1655801;86;21433;-62
2022/04/17 03:47:52;;;;;;;15.98;9.90;;;;;;;-1.42;79.26;101070.40;1655685;85;21197;-62
2022/04/17 03:50:18;;;;;;;13.83;10.85;;;;;;;-1.41;79.32;101067.42;1649307;86;21059;-62
2022/04/17 03:52:48;;;;;;;14.10;10.38;;;;;;;-1.34;79.40;101074.42;1645672;86;21665;-62
2022/04/17 03:55:15;;;;;;;18.45;10.40;;;;;;;-1.26;79.36;101072.91;1636050;85;21484;-62
2022/04/17 03:57:42;;;;;;;;;;;;;;;-1.11;79.64;101066.38;1642346;86;21052;-62
2022/04/17 04:00:13;;;;;;;16.42;11.50;;;;;;;-0.95;79.55;101068.45;1642727;86;20160;-62
2022/04/17 04:02:43;;;;;;;19.42;11.70;;;;;;;-0.69;79.83;101064.70;1642812;86;21093;-62
2022/04/17 04:05:11;;;;;;;19.60;10.63;;;;;;;-0.27;79.87;101057.37;1619128;86;21717;-62
2022/04/17 04:07:39;;;;;;;19.80;12.50;;;;;;;-0.14;79.18;101053.73;1632451;86;22254;-62
2022/04/17 04:10:07;;;;;;;;;;;;;;;-0.12;78.98;101057.20;1631663;86;21120;-62
2022/04/17 04:12:35;;;;;;;19.77;12.33;;;;;;;0.07;79.65;101057.97;1651319;86;20177;-63
2022/04/17 04:15:02;;;;;;;21.12;12.95;;;;;;;0.51;80.07;101059.11;1627803;86;21002;-63
2022/04/17 04:17:29;;;;;;;20.12;12.23;;;;;;;0.71;79.57;101053.40;1633157;86;21564;-62
2022/04/17 04:19:55;;;;;;;18.02;11.60;;;;;;;0.64;78.99;101053.31;1634225;86;21262;-62
2022/04/17 04:22:22;;;;;;;18.85;12.18;;;;;;;0.65;79.03;101048.61;1638257;86;20976;-62
2022/04/17 04:24:49;;;;;;;14.80;10.78;;;;;;;0.96;79.34;101055.46;1635941;86;20987;-62
2022/04/17 04:30:01;;;;;;;18.15;10.58;;;;;;;2.17;79.83;101052.03;1635925;86;21806;-62
2022/04/17 04:32:28;;;;;;;16.97;10.68;;;;;;;2.93;79.74;101049.55;1642330;86;21428;-63
2022/04/17 04:35:01;;;;;;;15.73;8.23;;;;;;;3.30;79.18;101051.41;1639033;86;20969;-63
2022/04/17 04:37:28;;;;;;;10.82;6.45;;;;;;;3.60;78.84;101056.25;1627599;86;21100;-62
2022/04/17 04:39:56;;;;;;;11.15;7.25;;;;;;;3.90;78.44;101057.19;1598998;88;21051;-63
2022/04/17 04:42:23;;;;;;;8.35;6.05;;;;;;;4.10;77.69;101046.43;1601794;88;21199;-63
2022/04/17 04:46:06;;;;;;;9.83;5.75;;;;;;;4.17;77.46;101057.22;1641339;85;21454;-63
2022/04/17 04:47:18;;;;;;;9.98;6.75;;;;;;;4.29;77.42;101061.95;1617712;87;21087;-62
2022/04/17 04:49:45;;;;;;;10.63;6.65;;;;;;;4.31;77.13;101067.97;1596817;88;21688;-62
2022/04/17 04:52:11;;;;;;;12.07;7.62;;;;;;;4.09;76.77;101066.69;1617840;87;21025;-63
2022/04/17 04:54:40;;;;;;;10.55;7.47;;;;;;;3.93;77.09;101054.17;1624694;86;21115;-63
2022/04/17 04:57:07;;;;;;;11.70;6.95;;;;;;;4.13;77.97;101059.36;1628758;86;21470;-63
2022/04/17 04:59:34;;;;;;;;;;;;;;;4.60;78.42;101055.89;1657181;86;21101;-63
2022/04/17 05:02:01;;;;;;;9.43;6.50;;;;;;;5.35;79.06;101065.17;1652902;85;26678;-62
2022/04/17 05:04:29;;;;;;;10.70;6.35;;;;;;;5.92;78.14;101057.93;1652815;85;21157;-62
2022/04/17 05:06:56;;;;;;;7.35;6.58;;;;;;;6.42;77.88;101058.01;1651303;85;21113;-63
2022/04/17 05:09:23;;;;;;;9.93;7.30;;;;;;;7.18;78.33;101055.48;1643353;85;21038;-63
2022/04/17 05:11:50;;;;;;;9.07;7.50;;;;;;;8.03;77.86;101043.48;1639332;85;22357;-63
2022/04/17 05:14:19;;;;;;;10.93;7.30;;;;;;;8.46;76.80;101037.62;1650925;85;21170;-63
2022/04/17 05:16:46;;;;;;;8.60;7.00;;;;;;;8.46;76.18;101042.82;1646669;85;21718;-63
2022/04/17 05:19:27;;;;;;;10.43;7.20;;;;;;;8.31;76.11;101038.68;1655185;85;21052;-64
2022/04/17 05:21:58;;;;;;;9.08;7.35;;;;;;;8.50;76.55;101032.30;1664613;85;21189;-63
2022/04/17 05:24:26;;;;;;;11.00;7.50;;;;;;;8.76;76.24;101040.53;1659541;85;21062;-63
2022/04/17 05:26:53;;;;;;;9.43;7.28;;;;;;;9.22;77.31;101037.04;1596650;86;21582;-64
2022/04/17 05:29:20;;;;;;;9.38;7.42;;;;;;;9.99;77.56;101030.50;1603583;87;21165;-64
2022/04/17 05:31:48;;;;;;;13.25;8.25;;;;;;;10.33;77.56;101041.45;1629527;87;21033;-64
2022/04/17 05:34:16;;;;;;;13.68;9.90;;;;;;;10.78;76.92;101038.53;1629324;86;21085;-64
2022/04/17 05:36:43;;;;;;;13.80;9.38;;;;;;;10.54;75.69;101034.84;1642288;85;21103;-64
2022/04/17 05:39:11;;;;;;;13.13;9.20;;;;;;;9.99;75.33;101034.42;1628665;87;20992;-64
2022/04/17 05:41:39;;;;;;;13.32;9.60;;;;;;;9.75;76.23;101039.78;1603111;87;21051;-64
2022/04/17 05:44:07;;;;;;;;;;;;;;;9.61;75.59;101044.00;1616486;87;21253;-64
2022/04/17 05:46:36;;;;;;;14.90;6.55;;;;;;;9.46;75.09;101045.62;1634155;87;21276;-64
2022/04/17 05:49:04;;;;;;;9.13;6.25;;;;;;;9.38;75.53;101038.41;1622600;87;21012;-63
2022/04/17 05:51:34;;;;;;;7.45;5.58;;;;;;;9.43;75.83;101049.60;1625408;87;22272;-64
2022/04/17 05:54:05;;;;;;;11.15;5.35;;;;;;;9.51;75.83;101043.78;1615940;87;21074;-63
2022/04/17 05:56:32;;;;;;;5.58;4.92;;;;;;;9.74;76.11;101042.41;1596033;87;21011;-63
2022/04/17 05:59:00;;;;;;;8.98;4.37;;;;;;;10.00;75.87;101037.91;1613748;87;21494;-63
2022/04/17 06:01:29;;;;;;;7.50;4.65;;;;;;;10.22;75.86;101035.61;1614021;87;20976;-64
2022/04/17 06:03:56;;;;;;;6.50;4.83;;;;;;;10.71;76.52;101026.55;1617224;87;21115;-64
2022/04/17 06:06:22;;;;;;;6.47;4.60;;;;;;;11.04;76.19;101027.84;1623373;87;21221;-63
2022/04/17 06:08:51;;;;;;;5.60;4.22;;;;;;;11.26;75.17;101025.01;1609517;87;21541;-63
2022/04/17 06:11:17;;;;;;;7.30;3.58;;;;;;;11.31;74.45;101017.86;1595622;88;21454;-63
2022/04/17 06:13:44;;;;;;;6.45;3.40;;;;;;;11.28;73.48;101019.27;1590274;88;21004;-63
2022/04/17 06:16:11;;;;;;;6.58;2.95;;;;;;;11.15;74.00;101023.16;1598890;88;20989;-63
2022/04/17 06:18:40;;;;;;;3.83;3.15;;;;;;;11.18;73.86;101017.84;1594026;88;20981;-64
2022/04/17 06:21:07;;;;;;;4.47;3.67;;;;;;;11.27;73.85;101020.63;1599304;88;21083;-64
2022/04/17 06:23:33;;;;;;;4.12;3.52;;;;;;;11.42;73.31;101023.63;1607132;88;22258;-66
2022/04/17 06:26:02;;;;;;;4.58;3.10;;;;;;;11.42;73.13;101013.16;1613519;88;20977;-66
2022/04/17 06:28:28;;;;;;;5.33;4.42;;;;;;;11.38;71.93;101010.25;1611808;88;21079;-64
2022/04/17 06:30:55;;;;;;;3.98;3.65;;;;;;;11.33;72.55;101007.37;1601592;88;20949;-64
2022/04/17 06:33:21;;;;;;;5.83;4.80;;;;;;;11.59;73.08;101009.18;1601987;88;21096;-66
2022/04/17 06:35:50;;;;;;;6.17;4.70;;;;;;;11.91;72.69;101002.13;1606740;88;21903;-64
2022/04/17 06:38:20;;;;;;;6.42;5.70;;;;;;;11.94;72.07;100999.41;1609896;88;21016;-64
2022/04/17 06:40:48;;;;;;;4.47;4.08;;;;;;;12.04;71.53;100991.22;1598145;88;27083;-64
2022/04/17 06:43:17;;;;;;;4.95;4.45;;;;;;;12.04;71.06;100995.56;1601883;88;21016;-64
2022/04/17 06:45:47;;;;;;;6.22;3.50;;;;;;;12.14;71.75;100994.37;1593729;88;20941;-63
2022/04/17 06:48:21;;;;;;;4.78;3.62;;;;;;;12.36;71.52;100987.95;1593435;88;21621;-64
2022/04/17 06:50:50;;;;;;;3.75;3.20;;;;;;;12.42;70.81;100989.50;1595684;88;21088;-64
2022/04/17 06:53:17;;;;;;;3.67;3.22;;;;;;;12.41;71.08;100990.42;1604700;88;21033;-64
2022/04/17 06:55:47;;;;;;;3.40;2.95;;;;;;;12.84;71.90;100986.27;1596482;88;21056;-64
2022/04/17 06:58:18;;;;;;;4.15;3.12;;;;;;;13.24;71.06;100994.80;1586481;88;21047;-66
2022/04/17 07:00:46;;;;;;;4.33;3.77;;;;;;;13.29;70.28;101001.23;1583488;88;21151;-64
2022/04/17 07:03:14;;;;;;;3.87;3.47;;;;;;;13.17;69.45;101002.06;1595426;88;20958;-64
2022/04/17 07:05:42;;;;;;;4.05;3.45;;;;;;;12.78;68.60;100995.67;1599626;88;20984;-64
2022/04/17 07:08:09;;;;;;;4.35;3.92;;;;;;;12.48;68.52;101003.69;1595462;88;20960;-64
2022/04/17 07:10:39;;;;;;;4.30;3.90;;;;;;;12.40;69.40;101006.56;1591952;88;21617;-64
2022/04/17 07:13:11;;;;;;;5.87;4.50;;;;;;;12.66;69.62;101008.73;1595141;88;22239;-64
2022/04/17 07:15:38;;;;;;;5.72;3.92;;;;;;;12.92;69.06;101006.50;1594642;88;21035;-64
2022/04/17 07:18:05;;;;;;;3.50;3.20;;;;;;;12.65;68.13;101011.81;1590818;88;21104;-64
2022/04/17 07:20:32;;;;;;;4.17;3.60;;;;;;;12.53;68.59;101012.25;1593097;88;21676;-63
2022/04/17 07:23:00;;;;;;;3.60;2.50;;;;;;;12.60;68.36;101005.87;1611980;88;20973;-63
2022/04/17 07:25:27;;;;;;;3.92;2.55;;;;;;;12.62;67.95;101009.30;1604059;88;21996;-63
2022/04/17 07:27:55;;;;;;;2.30;1.60;;;;;;;12.55;67.98;101005.20;1611510;88;21534;-64
2022/04/17 07:30:30;;;;;;;2.65;1.50;;;;;;;12.58;66.80;101007.71;1613604;88;21021;-64
2022/04/17 07:33:00;;;;;;;1.10;0.80;;;;;;;12.35;66.71;101011.56;1610906;88;21076;-61
2022/04/17 07:35:29;;;;;;;1.45;0.57;;;;;;;12.02;65.20;101007.88;1607591;88;21000;-61
2022/04/17 07:38:02;;;;;;;2.02;1.15;;;;;;;12.00;63.02;101012.30;1586186;88;21013;-61
2022/04/17 07:40:34;;;;;;;2.10;1.02;;;;;;;11.91;64.80;101015.22;1595020;88;21076;-60
2022/04/17 07:43:04;;;;;;;1.17;0.80;;;;;;;11.77;65.43;101011.23;1606491;88;20974;-65
2022/04/17 07:45:32;;;;;;;1.22;1.00;;;;;;;11.70;65.88;101016.25;1600302;88;20943;-61
2022/04/17 07:47:59;;;;;;;0.80;0.70;;;;;;;11.70;65.20;101016.25;1600986;88;21000;-60
2022/04/17 07:50:31;;;;;;;0.75;0.60;;;;;;;11.48;64.34;101008.66;1594283;89;21091;-60
2022/04/17 07:52:59;;;;;;;0.90;0.50;;;;;;;11.34;64.00;101025.64;1599510;88;21155;-61
2022/04/17 07:55:27;;;;;;;1.47;0.85;;;;;;;11.29;64.36;101016.22;1604060;88;21536;-61
2022/04/17 08:00:22;;;;;;;1.65;0.70;;;;;;;10.56;61.78;101010.85;1602426;88;20980;-60
2022/04/17 08:02:53;;;;;;;1.32;0.50;;;;;;;10.54;62.86;101007.41;1598422;88;21176;-61
2022/04/17 08:05:22;;;;;;;1.60;0.68;;;;;;;10.67;63.17;101011.84;1604437;88;21757;-60
2022/04/17 08:07:50;;;;;;;1.22;0.68;;;;;;;10.66;61.46;101011.45;1612140;88;21124;-62
2022/04/17 08:10:17;;;;;;;1.12;0.68;;;;;;;10.56;60.72;101009.97;1610045;88;21603;-62
2022/04/17 08:12:45;;;;;;;0.85;0.50;;;;;;;10.62;62.50;101011.14;1602427;88;21682;-62
2022/04/17 08:15:12;;;;;;;1.12;0.72;;;;;;;10.43;57.61;101010.30;1603073;88;21950;-62
2022/04/17 08:17:39;;;;;;;0.60;0.60;;;;;;;10.15;58.29;101015.80;1603293;88;21105;-62
2022/04/17 08:20:09;;;;;;;1.70;0.78;;;;;;;10.33;59.65;101000.98;1598090;88;21537;-62
2022/04/17 08:22:36;;;;;;;0.85;0.60;;;;;;;10.30;59.63;101004.98;1604813;87;20992;-62
2022/04/17 08:25:03;;;;;;;;;;;;;;;10.40;60.12;101005.17;1617996;88;21075;-62
2022/04/17 08:27:30;;;;;;;0.78;0.55;;;;;;;10.61;60.23;100993.73;1610113;88;23769;-64
2022/04/17 08:29:57;;;;;;;0.85;0.60;;;;;;;10.69;58.07;100995.69;1614812;88;21030;-64
2022/04/17 08:32:24;;;;;;;0.82;0.50;;;;;;;10.37;54.46;101005.70;1594720;87;21121;-62
2022/04/17 08:34:50;;;;;;;1.73;0.77;;;;;;;10.34;58.58;100993.58;1596817;88;20973;-62
2022/04/17 08:37:17;;;;;;;1.07;0.63;;;;;;;10.29;56.58;100992.84;1598381;88;21719;-61
2022/04/17 08:39:44;;;;;;;1.30;0.67;;;;;;;10.16;55.97;100997.92;1599476;88;21152;-62
2022/04/17 08:42:12;;;;;;;1.37;0.70;;;;;;;10.16;55.97;100997.92;1611407;86;21875;-62
2022/04/17 08:44:39;;;;;;;0.80;0.62;;;;;;;10.31;57.57;100998.89;1610687;86;20979;-62
2022/04/17 08:47:07;;;;;;;1.80;0.73;;;;;;;10.47;57.24;101002.81;1607622;88;21057;-62
2022/04/17 08:49:35;;;;;;;1.05;0.70;;;;;;;10.48;56.10;100992.77;1602697;88;21314;-62
2022/04/17 08:52:08;;;;;;;1.77;0.80;;;;;;;10.56;53.90;100988.66;1635575;86;21126;-62
2022/04/17 08:54:37;;;;;;;3.72;1.02;;;;;;;10.53;55.59;100966.54;1643768;85;21582;-62
2022/04/17 08:57:05;;;;;;;1.55;0.80;;;;;;;10.85;56.15;100974.77;1635412;86;21035;-62
2022/04/17 08:59:32;;;;;;;2.47;0.85;;;;;;;11.14;57.05;100973.06;1644723;86;21616;-62
2022/04/17 09:02:10;;;;;;;1.12;0.70;;;;;;;11.51;56.44;100971.94;1639467;86;21602;-62
2022/04/17 09:04:40;;;;;;;1.10;0.90;;;;;;;11.37;55.33;100977.17;1649385;85;21106;-62
2022/04/17 09:07:12;;;;;;;1.35;0.62;;;;;;;11.58;55.74;100966.94;1639127;86;21046;-62
2022/04/17 09:09:53;;;;;;;1.47;1.00;;;;;;;11.83;55.23;100969.16;1626022;86;21139;-62
2022/04/17 09:12:23;;;;;;;0.90;0.70;;;;;;;11.88;55.03;100963.83;1638470;85;20984;-62
2022/04/17 09:14:51;;;;;;;1.20;0.85;;;;;;;12.04;54.79;100961.53;1637165;86;21513;-62
2022/04/17 09:17:21;;;;;;;1.02;0.60;;;;;;;11.81;52.84;100963.12;1640158;86;21326;-62
2022/04/17 09:19:49;;;;;;;1.55;0.70;;;;;;;11.59;52.17;100955.56;1636185;86;21038;-61
2022/04/17 09:22:16;;;;;;;1.80;0.70;;;;;;;11.25;51.51;100970.98;1623031;86;21061;-61
2022/04/17 09:24:43;;;;;;;1.87;1.20;;;;;;;11.11;53.69;100961.39;1635382;86;21726;-61
2022/04/17 09:27:10;;;;;;;1.17;0.50;;;;;;;11.12;50.04;100959.20;1639098;86;21328;-61
2022/04/17 09:29:39;;;;;;;0.50;0.40;;;;;;;10.93;49.62;100958.88;1633505;86;21142;-61
2022/04/17 09:32:10;;;;;;;1.05;0.50;;;;;;;10.80;51.54;100960.98;1634633;86;21024;-62
2022/04/17 09:34:55;;;;;;;0.85;0.45;;;;;;;10.70;50.71;100963.47;1635721;86;21063;-62
2022/04/17 09:37:23;;;;;;;2.35;0.62;;;;;;;10.42;47.09;100957.69;1653555;86;21050;-63
2022/04/17 09:39:54;;;;;;;0.88;0.50;;;;;;;10.39;51.05;100951.67;1629580;87;21015;-62
2022/04/17 09:42:24;;;;;;;0.70;0.37;;;;;;;10.55;51.69;100942.98;1599415;88;21187;-63
2022/04/17 09:44:54;;;;;;;0.93;0.50;;;;;;;10.66;49.12;100942.23;1597411;88;20943;-62
2022/04/17 09:47:28;;;;;;;0.95;0.50;;;;;;;10.67;49.41;100937.40;1598051;88;21009;-62
2022/04/17 09:50:02;;;;;;;1.32;0.30;;;;;;;10.66;50.27;100929.17;1610620;88;20982;-61
2022/04/17 09:52:35;;;;;;;0.57;0.30;;;;;;;10.68;49.88;100927.38;1644073;86;21051;-62
2022/04/17 09:55:03;;;;;;;0.62;0.47;;;;;;;10.51;49.47;100926.09;1654141;86;21112;-62
2022/04/17 09:57:36;;;;;;;0.88;0.47;;;;;;;10.56;49.82;100925.09;1647277;86;21035;-62
2022/04/17 10:00:18;;;;;;;1.00;0.50;;;;;;;10.28;45.67;100927.18;1624824;86;20935;-62
2022/04/17 10:02:47;;;;;;;0.40;0.30;;;;;;;10.28;46.69;100918.05;1643648;86;20999;-63
2022/04/17 10:05:20;;;;;;;1.35;0.72;;;;;;;10.07;46.80;100902.46;1630825;86;21533;-63
2022/04/17 10:07:50;;;;;;;0.93;0.40;;;;;;;10.12;45.24;100912.79;1647501;86;21114;-62
2022/04/17 10:10:20;;;;;;;1.10;0.60;;;;;;;10.04;46.71;100907.30;1638501;86;21036;-62
2022/04/17 10:12:47;;;;;;;0.55;0.40;;;;;;;10.35;48.08;100916.96;1634639;86;21159;-62
2022/04/17 10:15:15;;;;;;;1.42;0.45;;;;;;;10.58;47.66;100906.33;1655365;86;21047;-62
2022/04/17 10:17:45;;;;;;;0.40;0.30;;;;;;;10.80;48.46;100906.11;1637588;86;20999;-62
2022/04/17 10:20:14;;;;;;;0.35;0.35;;;;;;;10.70;45.05;100879.42;1631905;86;21911;-62
2022/04/17 10:22:43;;;;;;;1.20;0.50;;;;;;;10.70;45.05;100879.42;1594692;88;21049;-62
2022/04/17 10:25:10;;;;;;;1.22;0.50;;;;;;;10.67;46.52;100893.88;1614171;88;21060;-62
2022/04/17 10:27:49;;;;;;;0.85;0.40;;;;;;;10.76;46.84;100888.83;1641105;86;20956;-62
2022/04/17 10:30:24;;;;;;;2.67;0.40;;;;;;;10.70;46.98;100870.73;1639261;86;20976;-63
2022/04/17 10:33:14;;;;;;;0.90;0.60;;;;;;;10.78;46.29;100884.39;1632795;86;21848;-62
2022/04/17 10:36:04;;;;;;;0.95;0.60;;;;;;;10.81;46.38;100889.56;1532461;92;21011;-62
2022/04/17 10:38:48;;;;;;;0.47;0.40;;;;;;;10.78;46.29;100876.55;1534140;92;21594;-62
2022/04/17 10:41:16;;;;;;;0.50;0.30;;;;;;;10.96;47.16;100870.80;1531319;91;21125;-62
2022/04/17 10:43:51;;;;;;;0.72;0.40;;;;;;;11.06;44.48;100871.37;1523204;91;21275;-62
2022/04/17 10:46:20;;;;;;;1.00;0.40;;;;;;;11.02;46.22;100868.90;1520740;92;21544;-61
2022/04/17 10:48:51;;;;;;;2.45;0.40;;;;;;;11.03;43.94;100881.05;1517403;92;21210;-61
2022/04/17 10:51:30;;;;;;;1.17;0.37;;;;;;;11.07;45.84;100872.23;1516043;92;21148;-61
2022/04/17 10:54:06;;;;;;;0.78;0.42;;;;;;;11.05;44.96;100866.19;1517369;91;21171;-61
2022/04/17 10:56:39;;;;;;;1.10;0.72;;;;;;;11.05;44.96;100866.19;1508910;92;21200;-61
2022/04/17 10:59:28;;;;;;;0.72;0.30;;;;;;;11.08;43.93;100870.01;1528794;92;21199;-62
2022/04/17 11:02:01;;;;;;;2.62;0.25;;;;;;;10.83;39.72;100863.38;1537536;92;21148;-62
2022/04/17 11:04:31;;;;;;;1.12;0.35;;;;;;;10.72;43.81;100861.07;1506502;93;21133;-62
2022/04/17 11:07:12;;;;;;;0.88;0.40;;;;;;;11.11;42.60;100843.31;1531512;91;21149;-62
2022/04/17 11:09:44;;;;;;;1.82;0.50;;;;;;;11.39;41.24;100844.59;1530924;92;21223;-62
2022/04/17 11:12:19;;;;;;;0.70;0.23;;;;;;;11.52;43.97;100833.74;1555321;86;22774;-63
2022/04/17 11:15:05;;;;;;;1.15;0.42;;;;;;;11.38;42.21;100841.58;1633174;86;21009;-63
2022/04/17 11:17:33;;;;;;;1.52;0.20;;;;;;;11.22;41.01;100842.13;1633697;86;21050;-62
2022/04/17 11:20:02;;;;;;;0.65;0.33;;;;;;;11.12;41.57;100845.50;1631912;86;21540;-63
2022/04/17 11:22:37;;;;;;;1.07;0.57;;;;;;;11.02;42.68;100831.85;1627328;87;21106;-63
2022/04/17 11:25:12;;;;;;;1.25;0.33;;;;;;;11.04;42.64;100835.73;1615098;86;21822;-62
2022/04/17 11:27:51;;;;;;;1.35;0.50;;;;;;;11.00;42.36;100828.88;1616498;86;21029;-61
2022/04/17 11:30:23;;;;;;;2.05;0.50;;;;;;;11.03;43.23;100824.86;1633039;86;21573;-61
2022/04/17 11:32:52;;;;;;;1.10;0.30;;;;;;;10.90;40.88;100830.48;1627910;86;21037;-61
2022/04/17 11:35:22;;;;;;;0.40;0.37;;;;;;;10.92;42.58;100833.03;1631564;86;21025;-61
2022/04/17 11:38:04;;;;;;;0.85;0.40;;;;;;;11.04;42.86;100822.67;1633127;86;21080;-62
2022/04/17 11:40:34;;;;;;;0.40;0.40;;;;;;;11.09;42.81;100812.90;1638814;86;21100;-61
2022/04/17 11:43:11;;;;;;;1.22;0.50;;;;;;;11.17;43.17;100811.78;1640926;86;21112;-62